Time;durP1;ratioP1;P1;durP2;ratioP2;P2;SDS_P1;SDS_P2;PMS_P1;PMS_P2;Temp;Humidity;BMP_temperature;BMP_pressure;BME280_temperature;BME280_humidity;BME280_pressure;Samples;Min_cycle;Max_cycle;Signal;HPM_P1;HPM_P2
2023/11/28 00:01:43;;;;;;;2.38;1.52;;;5.40;84.90;;;;;;5057798;28;20035;-62
2023/11/28 00:04:08;;;;;;;2.60;1.65;;;5.40;85.00;;;;;;5056400;28;20495;-61
2023/11/28 00:06:35;;;;;;;2.55;1.73;;;5.40;85.00;;;;;;5053603;28;20112;-61
2023/11/28 00:09:01;;;;;;;2.88;1.60;;;5.40;85.00;;;;;;5052175;28;20028;-60
2023/11/28 00:11:26;;;;;;;2.63;1.77;;;5.40;85.00;;;;;;5054958;28;20507;-61
2023/11/28 00:13:52;;;;;;;1.67;1.48;;;5.30;84.90;;;;;;5055434;28;20029;-61
2023/11/28 00:16:18;;;;;;;2.83;1.67;;;5.30;84.90;;;;;;5050955;28;20076;-60
2023/11/28 00:18:44;;;;;;;2.22;1.73;;;5.30;85.00;;;;;;5051261;28;20094;-60
2023/11/28 00:21:10;;;;;;;3.92;2.38;;;5.30;85.00;;;;;;5049597;28;20442;-61
2023/11/28 00:23:36;;;;;;;2.78;1.90;;;5.20;85.00;;;;;;5056259;28;20029;-61
2023/11/28 00:26:01;;;;;;;2.58;2.03;;;5.20;85.00;;;;;;5061661;28;20033;-61
2023/11/28 00:28:27;;;;;;;2.72;1.70;;;5.20;85.10;;;;;;5060620;28;20495;-61
2023/11/28 00:30:53;;;;;;;2.95;2.10;;;5.20;85.30;;;;;;5053135;28;20059;-61
2023/11/28 00:33:19;;;;;;;2.15;1.65;;;5.30;85.70;;;;;;5064115;28;20452;-61
2023/11/28 00:35:45;;;;;;;2.28;1.50;;;5.30;84.90;;;;;;5056637;28;20075;-61
2023/11/28 00:38:11;;;;;;;1.80;1.30;;;5.20;84.90;;;;;;5059492;28;20033;-61
2023/11/28 00:40:36;;;;;;;1.92;1.45;;;5.20;84.80;;;;;;5054819;28;20028;-61
2023/11/28 00:43:03;;;;;;;1.42;1.33;;;5.20;85.00;;;;;;5035575;28;20115;-61
2023/11/28 00:45:30;;;;;;;1.63;1.27;;;5.20;84.90;;;;;;5057787;28;20507;-61
2023/11/28 00:47:55;;;;;;;2.30;1.63;;;5.20;84.80;;;;;;5059028;28;20026;-61
2023/11/28 00:50:21;;;;;;;2.60;1.70;;;5.20;84.70;;;;;;5046484;28;20036;-61
2023/11/28 00:52:48;;;;;;;1.95;1.33;;;5.10;84.70;;;;;;5058916;28;20032;-61
2023/11/28 00:55:15;;;;;;;2.17;1.58;;;5.10;84.60;;;;;;5059540;28;20060;-61
2023/11/28 00:57:43;;;;;;;2.50;1.70;;;5.10;84.70;;;;;;5055537;28;20057;-61
2023/11/28 01:00:09;;;;;;;1.20;0.98;;;5.20;84.80;;;;;;5055474;28;20033;-61
2023/11/28 01:02:36;;;;;;;3.13;1.67;;;5.20;84.80;;;;;;5052132;28;20029;-61
2023/11/28 01:05:03;;;;;;;2.45;1.73;;;5.20;84.70;;;;;;5051004;28;20029;-61
2023/11/28 01:07:29;;;;;;;2.38;1.80;;;5.20;84.60;;;;;;5058415;28;20029;-61
2023/11/28 01:09:55;;;;;;;2.60;1.38;;;5.20;84.50;;;;;;5054613;28;20104;-61
2023/11/28 01:12:21;;;;;;;2.45;1.60;;;5.20;84.50;;;;;;5050461;28;20029;-61
2023/11/28 01:14:47;;;;;;;2.97;1.55;;;5.20;84.50;;;;;;5055939;28;20052;-61
2023/11/28 01:17:13;;;;;;;2.33;1.55;;;5.20;84.50;;;;;;5050080;28;20555;-61
2023/11/28 01:19:39;;;;;;;1.98;1.60;;;5.10;84.40;;;;;;5044216;28;20048;-60
2023/11/28 01:22:06;;;;;;;2.80;1.60;;;5.10;84.40;;;;;;5048656;28;20075;-61
2023/11/28 01:24:32;;;;;;;1.60;1.45;;;5.10;84.40;;;;;;5056156;28;20108;-61
2023/11/28 01:26:58;;;;;;;2.40;1.17;;;5.10;84.50;;;;;;5056933;28;20137;-61
2023/11/28 01:29:24;;;;;;;2.47;1.63;;;5.10;84.40;;;;;;5052299;28;20087;-61
2023/11/28 01:31:50;;;;;;;2.28;1.60;;;5.10;84.20;;;;;;5052160;28;20586;-62
2023/11/28 01:34:16;;;;;;;1.92;1.48;;;5.10;84.10;;;;;;5049033;28;20036;-62
2023/11/28 01:36:43;;;;;;;2.33;1.20;;;5.10;84.30;;;;;;5052037;28;20033;-62
2023/11/28 01:39:09;;;;;;;2.78;1.63;;;5.10;84.40;;;;;;5048782;28;20111;-61
2023/11/28 01:41:35;;;;;;;2.40;1.35;;;5.10;84.20;;;;;;5052757;28;20391;-61
2023/11/28 01:44:07;;;;;;;1.73;1.50;;;5.10;84.20;;;;;;5050433;28;20057;-61
2023/11/28 01:46:34;;;;;;;2.30;1.75;;;5.10;84.00;;;;;;5056590;28;20130;-61
2023/11/28 01:49:02;;;;;;;4.00;1.90;;;5.00;84.00;;;;;;5047598;28;20040;-61
2023/11/28 01:51:29;;;;;;;1.98;1.55;;;4.90;84.00;;;;;;5050962;28;20033;-61
2023/11/28 01:53:59;;;;;;;2.60;1.75;;;4.90;83.90;;;;;;5055668;28;20391;-62
2023/11/28 01:56:25;;;;;;;3.63;2.45;;;4.80;84.00;;;;;;5053215;28;20037;-61
2023/11/28 01:58:53;;;;;;;2.10;1.50;;;4.80;84.00;;;;;;5051406;28;20942;-61
2023/11/28 02:01:21;;;;;;;2.75;1.75;;;4.80;84.10;;;;;;5047259;28;20036;-62
2023/11/28 02:03:47;;;;;;;1.40;1.30;;;4.90;84.10;;;;;;5058955;28;20033;-62
2023/11/28 02:06:16;;;;;;;2.95;1.45;;;4.90;83.90;;;;;;5049034;28;20029;-62
2023/11/28 02:08:42;;;;;;;2.85;1.50;;;4.90;83.90;;;;;;5056581;28;20036;-62
2023/11/28 02:11:07;;;;;;;1.85;1.40;;;4.80;83.90;;;;;;5057446;28;20111;-62
2023/11/28 02:13:34;;;;;;;2.00;1.83;;;4.80;83.90;;;;;;5055376;28;20215;-61
2023/11/28 02:16:17;;;;;;;2.63;1.60;;;4.80;84.00;;;;;;5054040;28;20024;-62
2023/11/28 02:18:43;;;;;;;4.97;1.85;;;4.80;84.10;;;;;;5051126;28;20103;-61
2023/11/28 02:21:13;;;;;;;2.33;1.45;;;4.80;84.10;;;;;;5056686;28;20045;-62
2023/11/28 02:23:40;;;;;;;1.77;1.50;;;4.80;84.00;;;;;;5045906;28;20107;-62
2023/11/28 02:26:17;;;;;;;2.60;1.70;;;4.80;83.90;;;;;;5050486;28;20415;-62
2023/11/28 02:28:43;;;;;;;1.98;1.45;;;4.90;83.70;;;;;;5056419;28;20068;-62
2023/11/28 02:31:09;;;;;;;2.42;1.65;;;4.80;83.70;;;;;;5054476;28;20067;-61
2023/11/28 02:33:35;;;;;;;3.33;1.85;;;4.80;83.90;;;;;;5055369;28;20029;-61
2023/11/28 02:36:01;;;;;;;2.65;1.70;;;4.80;83.90;;;;;;5045563;28;20324;-62
2023/11/28 02:38:27;;;;;;;2.30;1.88;;;4.80;83.80;;;;;;5051144;28;20025;-62
2023/11/28 02:40:52;;;;;;;3.17;2.30;;;4.80;83.70;;;;;;5047966;28;20033;-62
2023/11/28 02:43:18;;;;;;;2.05;1.55;;;4.80;83.70;;;;;;5048618;28;20044;-63
2023/11/28 02:45:45;;;;;;;3.67;2.25;;;4.80;83.80;;;;;;5052107;28;20063;-62
2023/11/28 02:48:11;;;;;;;2.90;2.50;;;4.80;83.60;;;;;;5055508;28;20017;-62
2023/11/28 02:50:37;;;;;;;3.85;2.17;;;4.80;83.60;;;;;;5047886;28;20500;-62
2023/11/28 02:53:04;;;;;;;2.85;2.33;;;4.80;83.50;;;;;;5053716;28;20350;-63
2023/11/28 02:55:29;;;;;;;2.08;1.80;;;4.80;83.60;;;;;;5054065;28;20035;-62
2023/11/28 02:57:57;;;;;;;3.70;2.35;;;4.80;83.50;;;;;;5041292;28;20037;-61
2023/11/28 03:00:23;;;;;;;4.20;2.65;;;4.80;83.30;;;;;;5048491;28;20032;-60
2023/11/28 03:02:48;;;;;;;4.30;2.25;;;4.70;83.40;;;;;;5055963;28;20042;-60
2023/11/28 03:05:14;;;;;;;3.53;2.70;;;4.80;83.60;;;;;;5057377;28;20036;-61
2023/11/28 03:07:40;;;;;;;2.70;2.13;;;4.70;83.40;;;;;;5057518;28;20036;-61
2023/11/28 03:10:06;;;;;;;4.75;2.53;;;4.70;83.40;;;;;;5055005;28;20037;-62
2023/11/28 03:12:31;;;;;;;2.60;1.90;;;4.80;83.30;;;;;;5054594;28;20401;-61
2023/11/28 03:14:57;;;;;;;3.67;2.15;;;4.70;83.10;;;;;;5056983;28;20029;-61
2023/11/28 03:17:23;;;;;;;2.85;1.90;;;4.70;83.30;;;;;;5053522;28;20029;-61
2023/11/28 03:19:49;;;;;;;3.13;2.10;;;4.70;83.20;;;;;;5059166;28;20531;-61
2023/11/28 03:22:15;;;;;;;4.75;1.90;;;4.60;83.20;;;;;;5048962;28;20036;-61
2023/11/28 03:24:43;;;;;;;7.13;1.73;;;4.60;83.20;;;;;;5050740;28;20029;-61
2023/11/28 03:27:09;;;;;;;3.83;1.80;;;4.60;83.00;;;;;;5051715;28;20039;-61
2023/11/28 03:29:36;;;;;;;4.70;2.08;;;4.60;83.00;;;;;;5055623;28;20111;-61
2023/11/28 03:32:02;;;;;;;3.03;1.75;;;4.60;83.20;;;;;;5040879;28;20037;-61
2023/11/28 03:34:28;;;;;;;2.85;1.70;;;4.50;82.90;;;;;;5048455;28;20446;-61
2023/11/28 03:36:54;;;;;;;1.73;1.27;;;4.50;83.00;;;;;;5047776;28;20049;-61
2023/11/28 03:39:19;;;;;;;3.47;2.17;;;4.50;82.90;;;;;;5049898;28;20119;-61
2023/11/28 03:41:48;;;;;;;1.63;1.33;;;4.50;82.70;;;;;;5043090;28;20056;-61
2023/11/28 03:44:14;;;;;;;1.88;1.30;;;4.50;82.70;;;;;;5047347;28;20392;-61
2023/11/28 03:46:40;;;;;;;1.95;1.23;;;4.50;82.40;;;;;;5049618;28;20037;-61
2023/11/28 03:49:06;;;;;;;2.20;1.45;;;4.40;82.20;;;;;;5048429;28;20095;-61
2023/11/28 03:51:34;;;;;;;2.10;1.15;;;4.30;81.80;;;;;;5044427;28;20069;-61
2023/11/28 03:53:59;;;;;;;4.28;1.25;;;4.20;81.90;;;;;;5041188;28;20056;-61
2023/11/28 03:56:25;;;;;;;1.95;1.17;;;4.20;82.00;;;;;;5045722;28;20412;-61
2023/11/28 03:58:51;;;;;;;2.40;1.30;;;4.10;82.00;;;;;;5057293;28;20063;-63
2023/11/28 04:01:17;;;;;;;2.13;1.17;;;4.10;81.70;;;;;;5054854;28;20032;-63
2023/11/28 04:03:43;;;;;;;1.90;1.00;;;4.00;81.50;;;;;;5047999;28;20032;-63
2023/11/28 04:06:09;;;;;;;1.17;0.80;;;3.90;81.20;;;;;;5038642;28;20413;-63
2023/11/28 04:08:34;;;;;;;1.42;1.13;;;3.80;81.50;;;;;;5059348;28;20032;-63
2023/11/28 04:11:00;;;;;;;1.10;0.90;;;3.80;81.40;;;;;;5066846;28;20534;-63
2023/11/28 04:13:26;;;;;;;0.85;0.68;;;3.70;81.40;;;;;;5061985;28;20391;-63
2023/11/28 04:15:52;;;;;;;1.58;1.00;;;3.70;81.40;;;;;;5044746;28;20041;-63
2023/11/28 04:18:17;;;;;;;2.25;0.90;;;3.60;81.30;;;;;;5043867;28;20416;-62
2023/11/28 04:20:43;;;;;;;5.55;1.33;;;3.60;81.20;;;;;;5055078;28;20025;-62
2023/11/28 04:23:09;;;;;;;2.50;1.00;;;3.60;81.20;;;;;;5054394;28;20075;-61
2023/11/28 04:25:35;;;;;;;0.85;0.77;;;3.60;81.10;;;;;;5052443;28;20372;-62
2023/11/28 04:28:00;;;;;;;2.20;1.00;;;3.50;81.20;;;;;;5049474;28;20045;-62
2023/11/28 04:30:26;;;;;;;0.95;0.88;;;3.50;81.00;;;;;;5055311;28;20071;-62
2023/11/28 04:32:52;;;;;;;0.88;0.82;;;3.40;81.00;;;;;;5053746;28;20082;-62
2023/11/28 04:35:17;;;;;;;1.27;0.90;;;3.40;81.00;;;;;;5048710;28;20105;-62
2023/11/28 04:37:43;;;;;;;2.65;0.65;;;3.40;81.00;;;;;;5047365;28;20499;-63
2023/11/28 04:40:09;;;;;;;1.13;0.60;;;3.40;80.90;;;;;;5048212;28;20025;-62
2023/11/28 04:42:35;;;;;;;0.98;0.77;;;3.40;80.90;;;;;;5046571;28;20426;-62
2023/11/28 04:45:00;;;;;;;1.05;0.77;;;3.40;81.00;;;;;;5052482;28;20390;-62
2023/11/28 04:47:26;;;;;;;0.93;0.70;;;3.30;81.00;;;;;;5054891;28;20404;-63
2023/11/28 04:49:52;;;;;;;0.68;0.60;;;3.30;81.10;;;;;;5052040;28;20450;-62
2023/11/28 04:52:18;;;;;;;1.77;0.68;;;3.30;81.10;;;;;;5057458;28;20041;-62
2023/11/28 04:54:43;;;;;;;0.68;0.65;;;3.30;81.00;;;;;;5047599;28;20038;-62
2023/11/28 04:57:09;;;;;;;1.20;0.50;;;3.30;81.10;;;;;;5050484;28;20067;-62
2023/11/28 04:59:35;;;;;;;1.38;0.60;;;3.30;81.20;;;;;;5046659;28;20487;-61
2023/11/28 05:02:01;;;;;;;0.88;0.50;;;3.30;81.20;;;;;;5052714;28;20021;-62
2023/11/28 05:04:26;;;;;;;0.73;0.57;;;3.30;81.30;;;;;;5050741;28;20063;-61
2023/11/28 05:06:52;;;;;;;0.75;0.75;;;3.20;81.30;;;;;;5049969;28;20074;-61
2023/11/28 05:09:18;;;;;;;1.95;0.60;;;3.20;81.40;;;;;;5045760;28;20102;-61
2023/11/28 05:11:44;;;;;;;0.95;0.77;;;3.20;81.50;;;;;;5050418;28;20038;-61
2023/11/28 05:14:10;;;;;;;0.95;0.73;;;3.20;81.40;;;;;;5047968;28;20365;-61
2023/11/28 05:16:36;;;;;;;1.00;0.77;;;3.20;81.60;;;;;;5051321;28;20036;-61
2023/11/28 05:19:02;;;;;;;0.40;0.40;;;3.20;81.60;;;;;;5056566;28;20068;-61
2023/11/28 05:21:28;;;;;;;0.77;0.60;;;3.20;81.70;;;;;;5056012;28;20025;-61
2023/11/28 05:23:54;;;;;;;0.73;0.73;;;3.20;81.60;;;;;;5054652;28;20142;-60
2023/11/28 05:26:20;;;;;;;1.02;0.50;;;3.20;81.70;;;;;;5056768;28;20067;-62
2023/11/28 05:28:47;;;;;;;0.75;0.68;;;3.30;81.70;;;;;;5054974;28;20086;-62
2023/11/28 05:31:13;;;;;;;1.20;1.00;;;3.30;82.30;;;;;;5058075;28;20047;-62
2023/11/28 05:33:40;;;;;;;6.65;1.27;;;3.20;81.80;;;;;;5058095;28;20041;-62
2023/11/28 05:36:07;;;;;;;1.30;0.85;;;3.20;81.90;;;;;;5060115;28;20029;-62
2023/11/28 05:38:33;;;;;;;2.25;0.80;;;3.20;81.90;;;;;;5057401;28;20519;-63
2023/11/28 05:40:59;;;;;;;1.50;0.70;;;3.20;82.00;;;;;;5054399;28;20112;-61
2023/11/28 05:43:29;;;;;;;1.67;0.75;;;3.20;82.00;;;;;;5051398;28;20423;-61
2023/11/28 05:45:55;;;;;;;1.13;0.70;;;3.20;82.10;;;;;;5053198;28;20025;-61
2023/11/28 05:48:21;;;;;;;2.22;0.70;;;3.30;82.20;;;;;;5058055;28;20041;-61
2023/11/28 05:50:46;;;;;;;0.50;0.50;;;3.30;82.20;;;;;;5054000;28;20111;-61
2023/11/28 05:53:12;;;;;;;0.73;0.68;;;3.40;82.20;;;;;;5055383;28;20440;-61
2023/11/28 05:55:39;;;;;;;1.27;0.80;;;3.40;82.10;;;;;;5055012;28;20056;-62
2023/11/28 05:58:05;;;;;;;1.50;0.88;;;3.40;82.00;;;;;;5057454;28;20440;-61
2023/11/28 06:00:34;;;;;;;0.63;0.63;;;3.50;82.00;;;;;;5048248;28;20029;-61
2023/11/28 06:03:00;;;;;;;1.67;0.80;;;3.50;81.90;;;;;;5038370;28;20116;-61
2023/11/28 06:05:25;;;;;;;2.05;0.82;;;3.50;81.90;;;;;;5050274;28;20453;-62
2023/11/28 06:07:51;;;;;;;1.00;0.90;;;3.60;82.00;;;;;;5049855;28;20078;-62
2023/11/28 06:10:17;;;;;;;1.77;1.10;;;3.60;82.00;;;;;;5053134;28;20060;-62
2023/11/28 06:12:43;;;;;;;1.02;0.80;;;3.60;81.90;;;;;;5054175;28;20087;-62
2023/11/28 06:15:09;;;;;;;1.30;0.70;;;3.60;81.90;;;;;;5056282;28;20158;-61
2023/11/28 06:17:35;;;;;;;0.70;0.70;;;3.70;81.90;;;;;;5050549;28;20028;-61
2023/11/28 06:20:01;;;;;;;1.52;0.68;;;3.70;81.80;;;;;;5053655;28;20060;-62
2023/11/28 06:22:26;;;;;;;0.68;0.60;;;3.70;81.80;;;;;;5054999;28;20028;-61
2023/11/28 06:24:52;;;;;;;1.63;1.00;;;3.70;81.70;;;;;;5049311;28;20020;-62
2023/11/28 06:27:17;;;;;;;1.05;0.82;;;3.60;81.70;;;;;;5049531;28;20116;-62
2023/11/28 06:29:43;;;;;;;1.20;0.88;;;3.70;81.70;;;;;;5053349;28;20029;-62
2023/11/28 06:32:09;;;;;;;1.73;1.00;;;3.60;81.80;;;;;;5051125;28;20065;-62
2023/11/28 06:34:35;;;;;;;0.77;0.75;;;3.70;81.80;;;;;;5053902;28;20033;-61
2023/11/28 06:37:01;;;;;;;2.00;0.70;;;3.70;81.70;;;;;;5055157;28;20577;-61
2023/11/28 06:39:27;;;;;;;1.17;0.82;;;3.70;81.70;;;;;;5049617;28;20028;-61
2023/11/28 06:41:53;;;;;;;1.58;1.00;;;3.70;81.60;;;;;;5047139;28;20025;-62
2023/11/28 06:44:20;;;;;;;0.68;0.68;;;3.70;81.50;;;;;;5050710;28;20349;-62
2023/11/28 06:46:49;;;;;;;0.60;0.50;;;3.70;81.60;;;;;;5054391;28;20021;-62
2023/11/28 06:49:15;;;;;;;4.20;0.70;;;3.70;81.70;;;;;;5055064;28;20025;-61
2023/11/28 06:51:40;;;;;;;0.60;0.60;;;3.60;81.70;;;;;;5057010;28;20387;-61
2023/11/28 06:54:06;;;;;;;2.30;0.73;;;3.70;81.80;;;;;;5053331;28;20059;-61
2023/11/28 06:56:32;;;;;;;0.50;0.50;;;3.70;81.70;;;;;;5052759;28;20036;-61
2023/11/28 06:58:58;;;;;;;0.82;0.73;;;3.70;81.70;;;;;;5055515;28;20032;-61
2023/11/28 07:01:24;;;;;;;1.00;0.80;;;3.70;81.60;;;;;;5045953;28;20029;-61
2023/11/28 07:03:50;;;;;;;1.10;0.75;;;3.70;81.70;;;;;;5058631;28;20028;-62
2023/11/28 07:06:16;;;;;;;0.45;0.45;;;3.70;81.70;;;;;;5051563;28;20098;-61
2023/11/28 07:08:41;;;;;;;1.40;0.73;;;3.70;81.60;;;;;;5051575;28;20020;-61
2023/11/28 07:11:16;;;;;;;1.02;0.70;;;3.70;81.60;;;;;;5056689;28;20036;-61
2023/11/28 07:13:42;;;;;;;1.25;0.77;;;3.80;81.60;;;;;;5051639;28;20027;-61
2023/11/28 07:16:08;;;;;;;0.57;0.57;;;3.80;81.60;;;;;;5055885;28;20025;-61
2023/11/28 07:18:34;;;;;;;0.77;0.77;;;3.80;81.40;;;;;;5054382;28;20098;-62
2023/11/28 07:21:00;;;;;;;0.50;0.40;;;3.80;81.40;;;;;;5051911;28;20032;-62
2023/11/28 07:23:26;;;;;;;1.02;0.95;;;3.80;81.40;;;;;;5049568;28;20024;-62
2023/11/28 07:25:52;;;;;;;0.95;0.73;;;3.80;81.40;;;;;;5042208;28;20666;-62
2023/11/28 07:28:18;;;;;;;1.02;0.98;;;3.80;81.40;;;;;;5051084;28;20088;-62
2023/11/28 07:30:45;;;;;;;0.77;0.57;;;3.90;81.50;;;;;;5055280;28;20034;-62
2023/11/28 07:33:10;;;;;;;1.15;0.57;;;3.90;81.30;;;;;;5055307;28;20025;-62
2023/11/28 07:35:36;;;;;;;2.05;1.02;;;4.00;81.30;;;;;;5053166;28;20021;-62
2023/11/28 07:38:03;;;;;;;0.93;0.75;;;4.00;81.20;;;;;;5050922;28;20024;-62
2023/11/28 07:40:30;;;;;;;0.95;0.70;;;4.00;81.20;;;;;;5052045;28;20120;-61
2023/11/28 07:42:56;;;;;;;1.05;0.95;;;4.00;81.10;;;;;;5053718;28;20399;-62
2023/11/28 07:45:21;;;;;;;4.32;0.93;;;4.00;81.00;;;;;;5051828;28;20021;-62
2023/11/28 07:47:47;;;;;;;0.60;0.60;;;4.00;81.00;;;;;;5047963;28;20110;-62
2023/11/28 07:50:13;;;;;;;1.10;1.00;;;4.00;81.00;;;;;;5053677;28;20083;-62
2023/11/28 07:52:39;;;;;;;0.50;0.50;;;4.00;80.90;;;;;;5048651;28;20037;-62
2023/11/28 07:55:07;;;;;;;1.33;0.95;;;4.10;80.70;;;;;;5049142;28;20021;-61
2023/11/28 07:57:33;;;;;;;1.90;1.17;;;4.00;80.50;;;;;;5054500;28;20111;-62
2023/11/28 07:59:59;;;;;;;1.42;0.80;;;4.00;80.40;;;;;;5046301;28;20025;-62
2023/11/28 08:02:24;;;;;;;1.48;0.95;;;4.00;80.50;;;;;;5035391;28;20056;-62
2023/11/28 08:04:50;;;;;;;0.95;0.80;;;4.10;80.70;;;;;;5050572;28;20065;-62
2023/11/28 08:07:15;;;;;;;1.00;0.85;;;4.10;80.50;;;;;;5033132;28;20116;-62
2023/11/28 08:09:41;;;;;;;0.50;0.35;;;4.10;80.20;;;;;;5052612;28;20115;-61
2023/11/28 08:12:07;;;;;;;2.45;1.10;;;4.20;80.20;;;;;;5051965;28;20484;-62
2023/11/28 08:14:32;;;;;;;0.70;0.57;;;4.20;80.20;;;;;;5060119;28;20033;-61
2023/11/28 08:16:58;;;;;;;0.40;0.40;;;4.20;80.20;;;;;;5052155;28;20115;-62
2023/11/28 08:19:24;;;;;;;0.90;0.80;;;4.30;80.20;;;;;;5055460;28;20121;-62
2023/11/28 08:21:49;;;;;;;1.50;0.90;;;4.30;80.20;;;;;;5045898;28;20555;-62
2023/11/28 08:24:15;;;;;;;0.63;0.63;;;4.40;80.20;;;;;;5045541;28;20171;-62
2023/11/28 08:26:40;;;;;;;0.50;0.50;;;4.40;79.90;;;;;;5051839;28;20783;-61
2023/11/28 08:29:06;;;;;;;0.82;0.57;;;4.40;79.90;;;;;;5050927;28;20025;-62
2023/11/28 08:31:32;;;;;;;0.60;0.60;;;4.40;79.90;;;;;;5049535;28;20125;-62
2023/11/28 08:33:57;;;;;;;1.30;0.60;;;4.50;79.90;;;;;;5043937;28;20572;-62
2023/11/28 08:36:23;;;;;;;1.70;0.90;;;4.50;79.60;;;;;;5046832;28;20528;-62
2023/11/28 08:38:50;;;;;;;1.27;0.98;;;4.40;79.60;;;;;;5052662;28;20073;-62
2023/11/28 08:41:15;;;;;;;8.45;0.82;;;4.30;79.70;;;;;;5057292;28;20033;-62
2023/11/28 08:43:42;;;;;;;0.52;0.52;;;4.30;79.70;;;;;;5048374;28;20021;-62
2023/11/28 08:46:09;;;;;;;0.43;0.43;;;4.30;79.80;;;;;;5057086;28;20379;-61
2023/11/28 08:48:34;;;;;;;1.83;1.20;;;4.20;79.80;;;;;;5050545;28;20037;-61
2023/11/28 08:51:00;;;;;;;1.48;0.80;;;4.20;79.90;;;;;;5050033;28;20045;-61
2023/11/28 08:53:26;;;;;;;2.17;1.02;;;4.20;80.00;;;;;;5055702;28;20163;-61
2023/11/28 08:55:51;;;;;;;3.78;0.82;;;4.20;80.00;;;;;;5055721;28;20633;-61
2023/11/28 08:58:17;;;;;;;1.02;0.68;;;4.20;79.90;;;;;;5057017;28;20127;-61
2023/11/28 09:00:42;;;;;;;2.15;0.68;;;4.30;79.80;;;;;;5055332;28;20170;-61
2023/11/28 09:03:08;;;;;;;5.68;0.50;;;4.30;79.80;;;;;;5061479;28;20104;-61
2023/11/28 09:05:34;;;;;;;0.57;0.57;;;4.30;79.80;;;;;;5059257;28;20375;-62
2023/11/28 09:08:00;;;;;;;3.47;1.30;;;4.30;79.80;;;;;;5053595;28;20139;-61
2023/11/28 09:10:25;;;;;;;0.77;0.77;;;4.30;79.60;;;;;;5055237;28;20036;-61
2023/11/28 09:12:51;;;;;;;0.70;0.47;;;4.30;79.50;;;;;;5046968;28;20099;-61
2023/11/28 09:15:17;;;;;;;0.82;0.77;;;4.40;79.50;;;;;;5048331;28;20234;-62
2023/11/28 09:17:43;;;;;;;3.60;0.57;;;4.40;79.50;;;;;;5050070;28;20131;-62
2023/11/28 09:20:09;;;;;;;0.75;0.70;;;4.40;79.50;;;;;;5050269;28;20086;-62
2023/11/28 09:22:35;;;;;;;1.45;0.75;;;4.50;79.70;;;;;;5055760;28;20344;-61
2023/11/28 09:25:01;;;;;;;3.13;0.60;;;4.50;79.30;;;;;;5052330;28;20621;-62
2023/11/28 09:27:27;;;;;;;4.28;1.00;;;4.50;79.10;;;;;;5051075;28;20075;-61
2023/11/28 09:29:53;;;;;;;0.98;0.60;;;4.50;78.80;;;;;;5049142;28;20116;-62
2023/11/28 09:32:19;;;;;;;1.27;0.63;;;4.60;79.10;;;;;;5053573;28;20499;-62
2023/11/28 09:34:45;;;;;;;0.52;0.52;;;4.60;79.00;;;;;;5052240;28;20067;-62
2023/11/28 09:37:11;;;;;;;3.47;1.10;;;4.60;78.90;;;;;;5050345;28;20106;-62
2023/11/28 09:39:37;;;;;;;1.23;0.82;;;4.70;78.90;;;;;;5058523;28;20041;-62
2023/11/28 09:42:08;;;;;;;1.02;0.73;;;4.80;78.90;;;;;;5048919;28;20083;-62
2023/11/28 09:44:35;;;;;;;4.67;1.10;;;4.80;78.80;;;;;;5051966;28;20033;-61
2023/11/28 09:47:07;;;;;;;1.15;0.60;;;4.90;78.60;;;;;;5058261;28;20032;-61
2023/11/28 09:49:41;;;;;;;;;;;4.90;78.60;;;;;;5036465;28;20528;-61
2023/11/28 09:52:08;;;;;;;0.70;0.60;;;4.90;78.60;;;;;;5055835;28;19912;-61
2023/11/28 09:54:39;;;;;;;1.63;0.98;;;5.00;78.50;;;;;;5052093;28;20375;-61
2023/11/28 09:57:09;;;;;;;1.33;1.10;;;5.00;78.50;;;;;;5051995;28;20044;-61
2023/11/28 09:59:38;;;;;;;0.70;0.50;;;5.20;78.40;;;;;;5044744;28;21167;-61
2023/11/28 10:02:05;;;;;;;2.33;0.70;;;5.20;78.20;;;;;;5037776;28;20544;-61
2023/11/28 10:04:32;;;;;;;1.73;1.23;;;5.30;77.90;;;;;;5042395;28;20147;-61
2023/11/28 10:07:01;;;;;;;1.00;0.90;;;5.30;77.90;;;;;;5046796;28;20040;-62
2023/11/28 10:09:31;;;;;;;1.15;0.70;;;5.50;78.00;;;;;;5050987;28;20339;-61
2023/11/28 10:12:09;;;;;;;1.15;0.68;;;5.60;78.10;;;;;;5053510;28;20380;-61
2023/11/28 10:14:41;;;;;;;1.48;1.15;;;6.20;78.90;;;;;;5051499;28;20032;-62
2023/11/28 10:17:09;;;;;;;2.10;1.27;;;8.00;76.70;;;;;;5056564;28;20033;-62
2023/11/28 10:19:35;;;;;;;1.80;0.85;;;10.40;70.90;;;;;;5042684;28;20045;-62
2023/11/28 10:22:08;;;;;;;1.55;0.98;;;12.70;64.10;;;;;;5045726;28;20090;-62
2023/11/28 10:24:34;;;;;;;1.20;0.70;;;14.80;59.40;;;;;;5053269;28;20040;-62
2023/11/28 10:27:00;;;;;;;0.75;0.63;;;16.40;55.00;;;;;;5052363;28;20038;-62
2023/11/28 10:29:32;;;;;;;1.13;0.60;;;17.60;51.50;;;;;;5047528;28;20124;-62
2023/11/28 10:32:00;;;;;;;0.90;0.60;;;18.20;48.90;;;;;;5047656;28;20101;-62
2023/11/28 10:34:27;;;;;;;0.50;0.50;;;18.40;47.80;;;;;;5048500;28;20124;-62
2023/11/28 10:36:53;;;;;;;2.08;0.60;;;18.30;46.70;;;;;;5049593;28;20112;-62
2023/11/28 10:39:20;;;;;;;2.30;0.88;;;18.20;45.70;;;;;;5048195;28;20119;-62
2023/11/28 10:41:47;;;;;;;0.80;0.63;;;18.40;45.10;;;;;;5047861;28;20021;-62
2023/11/28 10:44:13;;;;;;;0.77;0.77;;;19.00;45.10;;;;;;5048395;28;20035;-63
2023/11/28 10:46:39;;;;;;;0.50;0.50;;;19.70;43.90;;;;;;5055723;28;20447;-63
2023/11/28 10:49:05;;;;;;;0.63;0.50;;;20.10;43.20;;;;;;5048397;28;20032;-62
2023/11/28 10:51:32;;;;;;;0.60;0.60;;;20.60;41.80;;;;;;5054212;28;20307;-63
2023/11/28 10:54:08;;;;;;;0.50;0.50;;;21.10;40.60;;;;;;5040860;28;20103;-62
2023/11/28 10:56:48;;;;;;;1.60;1.00;;;20.20;39.80;;;;;;5039027;28;20404;-63
2023/11/28 10:59:27;;;;;;;1.75;0.82;;;20.10;41.10;;;;;;5045710;28;20025;-63
2023/11/28 11:01:54;;;;;;;0.50;0.50;;;20.80;40.80;;;;;;5051466;28;20028;-62
2023/11/28 11:04:20;;;;;;;0.73;0.70;;;21.50;39.00;;;;;;5034790;28;20034;-62
2023/11/28 11:06:45;;;;;;;0.40;0.40;;;20.90;39.00;;;;;;5043499;28;20443;-63
2023/11/28 11:09:12;;;;;;;0.40;0.40;;;18.90;40.40;;;;;;5033126;28;20090;-62
2023/11/28 11:11:39;;;;;;;0.65;0.57;;;16.80;43.30;;;;;;5042662;28;20027;-62
2023/11/28 11:14:40;;;;;;;0.70;0.63;;;15.40;46.80;;;;;;5047357;28;20144;-62
2023/11/28 11:17:26;;;;;;;1.08;0.60;;;15.70;46.20;;;;;;5048021;28;20056;-62
2023/11/28 11:19:56;;;;;;;0.35;0.35;;;15.10;46.90;;;;;;5040528;28;20055;-62
2023/11/28 11:22:23;;;;;;;1.08;0.43;;;16.10;45.80;;;;;;5034619;28;20025;-62
2023/11/28 11:24:49;;;;;;;0.52;0.52;;;16.50;44.40;;;;;;5046106;28;20036;-62
2023/11/28 11:27:18;;;;;;;0.40;0.40;;;15.70;44.30;;;;;;5040447;28;20881;-62
2023/11/28 11:29:44;;;;;;;1.92;0.68;;;14.50;46.20;;;;;;5044641;28;20044;-62
2023/11/28 11:32:18;;;;;;;1.27;0.80;;;15.00;46.90;;;;;;5044445;28;20029;-62
2023/11/28 11:34:50;;;;;;;1.00;0.50;;;16.80;44.50;;;;;;5046427;28;20091;-62
2023/11/28 11:37:20;;;;;;;2.40;0.65;;;18.70;41.10;;;;;;5050066;28;20472;-63
2023/11/28 11:39:47;;;;;;;0.98;0.70;;;20.20;39.20;;;;;;5044608;28;20025;-63
2023/11/28 11:42:26;;;;;;;0.60;0.45;;;20.50;37.70;;;;;;5049434;28;20022;-62
2023/11/28 11:44:59;;;;;;;0.40;0.40;;;20.30;37.90;;;;;;5046425;28;20020;-63
2023/11/28 11:47:30;;;;;;;0.88;0.57;;;19.80;38.20;;;;;;5048458;28;20032;-63
2023/11/28 11:49:57;;;;;;;0.30;0.30;;;20.10;38.20;;;;;;5044370;28;20060;-63
2023/11/28 11:52:27;;;;;;;0.57;0.40;;;21.00;38.20;;;;;;5041783;28;20040;-63
2023/11/28 11:55:06;;;;;;;0.60;0.50;;;21.30;36.60;;;;;;5043729;28;20037;-63
2023/11/28 11:57:32;;;;;;;0.40;0.40;;;20.20;37.00;;;;;;5035867;28;20051;-63
2023/11/28 11:59:59;;;;;;;0.30;0.30;;;19.00;38.20;;;;;;5040210;28;20037;-63
2023/11/28 12:02:36;;;;;;;0.38;0.38;;;17.80;40.10;;;;;;5034376;28;20025;-63
2023/11/28 12:05:01;;;;;;;0.47;0.47;;;17.00;40.90;;;;;;5036895;28;20040;-63
2023/11/28 12:07:27;;;;;;;1.08;0.60;;;15.90;41.60;;;;;;5043027;28;20488;-63
2023/11/28 12:09:53;;;;;;;0.43;0.43;;;14.70;43.70;;;;;;5038626;28;20040;-62
2023/11/28 12:12:18;;;;;;;0.52;0.50;;;13.50;45.30;;;;;;5043444;28;20032;-62
2023/11/28 12:14:44;;;;;;;0.40;0.40;;;12.40;47.50;;;;;;5044222;28;20047;-62
2023/11/28 12:17:10;;;;;;;0.70;0.47;;;11.60;49.50;;;;;;5039877;28;20118;-62
2023/11/28 12:19:36;;;;;;;0.65;0.52;;;10.90;51.20;;;;;;5040063;28;20048;-62
2023/11/28 12:22:03;;;;;;;1.20;0.40;;;10.40;52.20;;;;;;5045158;28;20399;-62
2023/11/28 12:24:31;;;;;;;0.70;0.40;;;10.00;53.30;;;;;;5042251;28;20036;-62
2023/11/28 12:27:02;;;;;;;0.65;0.50;;;9.60;54.20;;;;;;5036023;28;20582;-62
2023/11/28 12:29:28;;;;;;;0.50;0.40;;;9.40;55.00;;;;;;5034019;28;20100;-62
2023/11/28 12:31:55;;;;;;;0.60;0.60;;;9.10;55.40;;;;;;5043668;28;20036;-62
2023/11/28 12:34:31;;;;;;;1.05;0.60;;;9.00;55.70;;;;;;5045565;28;20028;-62
2023/11/28 12:36:59;;;;;;;0.40;0.35;;;8.80;56.00;;;;;;5052878;28;20219;-62
2023/11/28 12:39:26;;;;;;;0.40;0.40;;;8.60;56.70;;;;;;5044454;28;20655;-62
2023/11/28 12:41:56;;;;;;;1.15;0.55;;;8.40;57.00;;;;;;5049648;28;20017;-62
2023/11/28 12:44:31;;;;;;;1.25;0.70;;;8.30;57.40;;;;;;5053199;28;20448;-62
2023/11/28 12:46:58;;;;;;;2.13;1.02;;;8.20;57.90;;;;;;5044214;28;20024;-63
2023/11/28 12:49:27;;;;;;;0.43;0.40;;;8.00;58.70;;;;;;5053329;28;20048;-62
2023/11/28 12:51:57;;;;;;;1.75;0.85;;;7.90;59.20;;;;;;5043086;28;20194;-62
2023/11/28 12:54:25;;;;;;;0.73;0.55;;;7.80;60.50;;;;;;5052659;28;20029;-62